Time;durP1;ratioP1;P1;durP2;ratioP2;P2;SDS_P1;SDS_P2;PMS_P1;PMS_P2;Temp;Humidity;BMP_temperature;BMP_pressure;BME280_temperature;BME280_humidity;BME280_pressure;Samples;Min_cycle;Max_cycle;Signal;HPM_P1;HPM_P2
2021/04/07 00:01:27;;;;;;;860.22;216.15;;;4.80;98.10;;;;;;5067665;28;20376;-47
2021/04/07 00:03:53;;;;;;;843.60;191.00;;;4.80;97.90;;;;;;5066943;28;20403;-51
2021/04/07 00:06:19;;;;;;;;;;;4.80;98.20;;;;;;5063794;28;20898;-47
2021/04/07 00:08:49;;;;;;;;;;;4.80;98.00;;;;;;5062766;28;20433;-48
2021/04/07 00:11:16;;;;;;;844.50;192.80;;;4.90;98.20;;;;;;5063456;28;20384;-48
2021/04/07 00:13:42;;;;;;;;;;;4.80;98.40;;;;;;5064050;28;20559;-48
2021/04/07 00:16:08;;;;;;;;;;;4.80;98.00;;;;;;5044972;28;20393;-48
2021/04/07 00:18:35;;;;;;;856.95;209.73;;;4.80;97.90;;;;;;5071114;28;20416;-47
2021/04/07 00:21:01;;;;;;;;;;;4.80;97.90;;;;;;5062911;28;20386;-48
2021/04/07 00:23:26;;;;;;;;;;;5.00;96.40;;;;;;5065055;28;20493;-47
2021/04/07 00:25:53;;;;;;;849.38;191.65;;;5.00;96.20;;;;;;5063058;28;20395;-49
2021/04/07 00:28:21;;;;;;;851.28;197.45;;;5.10;96.20;;;;;;5069982;28;20421;-49
2021/04/07 00:30:47;;;;;;;850.70;193.30;;;5.10;96.60;;;;;;5070048;28;20402;-48
2021/04/07 00:33:14;;;;;;;856.45;202.88;;;5.10;97.10;;;;;;5071248;28;20406;-47
2021/04/07 00:35:40;;;;;;;860.70;217.43;;;5.10;97.70;;;;;;5071997;28;20747;-50
2021/04/07 00:38:06;;;;;;;864.20;221.88;;;5.00;98.20;;;;;;5067364;28;20387;-47
2021/04/07 00:40:33;;;;;;;863.35;219.30;;;4.90;98.70;;;;;;5070697;28;20377;-49
2021/04/07 00:43:00;;;;;;;865.15;221.68;;;5.00;99.00;;;;;;5071409;28;20696;-49
2021/04/07 00:45:26;;;;;;;870.28;224.68;;;5.00;99.30;;;;;;5070228;28;20382;-49
2021/04/07 00:47:53;;;;;;;866.67;213.30;;;4.90;99.40;;;;;;5071412;28;20410;-51
2021/04/07 00:50:21;;;;;;;864.95;219.70;;;4.90;99.90;;;;;;5070327;28;20405;-50
2021/04/07 00:52:47;;;;;;;865.55;220.32;;;5.10;99.90;;;;;;5070649;28;20425;-50
2021/04/07 00:55:14;;;;;;;866.33;225.85;;;5.10;99.90;;;;;;5071488;28;20389;-50
2021/04/07 00:57:40;;;;;;;866.03;224.45;;;5.10;99.90;;;;;;5070877;28;20413;-48
2021/04/07 01:00:08;;;;;;;865.30;218.73;;;5.20;99.90;;;;;;5075497;28;20901;-49
2021/04/07 01:02:34;;;;;;;858.92;207.23;;;5.30;99.90;;;;;;5068782;28;20393;-49
2021/04/07 01:05:00;;;;;;;863.03;216.73;;;5.30;99.90;;;;;;5069399;28;20393;-48
2021/04/07 01:07:27;;;;;;;867.55;225.57;;;5.30;99.90;;;;;;5080036;28;20393;-48
2021/04/07 01:09:53;;;;;;;870.10;220.18;;;5.30;99.90;;;;;;5035132;28;20381;-48
2021/04/07 01:12:19;;;;;;;863.83;220.82;;;5.30;99.90;;;;;;5072376;28;20386;-47
2021/04/07 01:14:45;;;;;;;867.03;219.63;;;5.30;99.90;;;;;;5072829;28;20379;-47
2021/04/07 01:17:12;;;;;;;863.30;220.75;;;5.30;99.90;;;;;;5071200;28;20374;-48
2021/04/07 01:19:38;;;;;;;866.83;224.90;;;5.30;99.90;;;;;;5087865;28;20369;-48
2021/04/07 01:22:04;;;;;;;864.00;222.68;;;5.30;99.90;;;;;;5072506;28;20401;-48
2021/04/07 01:24:31;;;;;;;865.38;221.43;;;5.30;99.90;;;;;;5088047;28;20391;-47
2021/04/07 01:26:58;;;;;;;862.85;216.57;;;5.40;99.90;;;;;;5072266;28;20734;-48
2021/04/07 01:29:24;;;;;;;862.60;216.02;;;5.40;99.90;;;;;;5069936;28;20421;-48
2021/04/07 01:31:51;;;;;;;860.25;210.23;;;5.40;99.90;;;;;;5066451;28;20395;-51
2021/04/07 01:34:23;;;;;;;859.03;210.77;;;5.40;99.90;;;;;;5071945;28;20382;-47
2021/04/07 01:36:49;;;;;;;865.42;218.52;;;5.40;99.90;;;;;;5072258;28;20386;-49
2021/04/07 01:39:16;;;;;;;859.65;213.52;;;5.40;99.90;;;;;;5071460;28;20374;-48
2021/04/07 01:41:42;;;;;;;858.65;213.15;;;5.40;99.90;;;;;;5072221;28;20374;-47
2021/04/07 01:44:09;;;;;;;861.45;215.77;;;5.50;99.90;;;;;;5087329;28;20377;-49
2021/04/07 01:46:35;;;;;;;858.67;211.70;;;5.40;99.90;;;;;;5086072;28;20397;-47
2021/04/07 01:49:02;;;;;;;864.33;216.30;;;5.40;99.90;;;;;;5071481;28;20410;-50
2021/04/07 01:51:29;;;;;;;863.50;218.25;;;5.40;99.90;;;;;;5079913;28;20378;-47
2021/04/07 01:54:03;;;;;;;862.72;211.40;;;5.40;99.90;;;;;;5086599;28;20398;-49
2021/04/07 01:56:29;;;;;;;858.83;211.20;;;5.50;99.90;;;;;;5071898;28;20381;-48
2021/04/07 01:59:06;;;;;;;861.50;208.52;;;5.50;99.90;;;;;;5070560;28;20390;-48
2021/04/07 02:01:38;;;;;;;861.72;208.15;;;5.50;99.90;;;;;;5064011;28;20414;-50
2021/04/07 02:04:04;;;;;;;860.80;210.50;;;5.40;99.90;;;;;;5063500;28;20399;-48
2021/04/07 02:06:30;;;;;;;862.03;210.98;;;5.40;99.90;;;;;;5069458;28;20378;-48
2021/04/07 02:08:57;;;;;;;864.13;217.35;;;5.40;99.90;;;;;;5065462;28;20422;-49
2021/04/07 02:11:23;;;;;;;864.03;220.60;;;5.30;99.90;;;;;;5084124;28;20382;-49
2021/04/07 02:13:49;;;;;;;866.08;221.02;;;5.30;99.90;;;;;;5065586;28;20406;-47
2021/04/07 02:16:16;;;;;;;865.58;219.52;;;5.30;99.90;;;;;;5084354;28;20873;-48
2021/04/07 02:18:45;;;;;;;866.88;226.63;;;5.30;99.90;;;;;;5061625;28;20395;-48
2021/04/07 02:21:11;;;;;;;866.05;226.02;;;5.30;99.90;;;;;;5065203;28;20896;-47
2021/04/07 02:23:37;;;;;;;866.42;229.80;;;5.30;99.90;;;;;;5064729;28;20397;-48
2021/04/07 02:26:05;;;;;;;865.08;226.57;;;5.30;99.90;;;;;;5064262;28;20390;-51
2021/04/07 02:28:31;;;;;;;865.95;228.90;;;5.30;99.90;;;;;;5082710;28;20423;-47
2021/04/07 02:30:57;;;;;;;865.03;222.52;;;5.30;99.90;;;;;;5068059;28;20755;-48
2021/04/07 02:33:23;;;;;;;869.05;223.43;;;5.30;99.90;;;;;;5069027;28;20397;-48
2021/04/07 02:35:49;;;;;;;866.00;225.90;;;5.30;99.90;;;;;;5069050;28;20390;-48
2021/04/07 02:38:16;;;;;;;864.55;219.88;;;5.20;99.70;;;;;;5084559;28;20878;-47
2021/04/07 02:40:42;;;;;;;863.15;219.90;;;5.20;99.90;;;;;;5064679;28;20382;-47
2021/04/07 02:43:08;;;;;;;864.67;215.43;;;5.10;99.90;;;;;;5083151;28;20390;-48
2021/04/07 02:45:34;;;;;;;859.75;212.57;;;5.00;99.90;;;;;;5078909;28;20391;-47
2021/04/07 02:48:01;;;;;;;857.08;207.15;;;4.90;99.90;;;;;;5067920;28;20418;-47
2021/04/07 02:50:27;;;;;;;858.13;206.43;;;4.80;99.90;;;;;;5062639;28;20452;-48
2021/04/07 02:52:53;;;;;;;857.88;203.80;;;4.80;99.90;;;;;;5069983;28;20720;-49
2021/04/07 02:55:19;;;;;;;853.03;196.15;;;4.70;99.90;;;;;;5068268;28;20725;-48
2021/04/07 02:57:45;;;;;;;860.08;202.82;;;4.70;99.90;;;;;;5061721;28;20734;-48
2021/04/07 03:00:12;;;;;;;857.40;199.70;;;4.60;99.90;;;;;;5068076;28;20417;-48
2021/04/07 03:02:38;;;;;;;855.45;190.88;;;4.50;99.90;;;;;;5067838;28;20395;-48
2021/04/07 03:05:05;;;;;;;854.42;195.45;;;4.40;99.90;;;;;;5067222;28;20374;-49
2021/04/07 03:07:31;;;;;;;849.65;187.13;;;4.30;99.90;;;;;;5060440;28;20401;-47
2021/04/07 03:09:57;;;;;;;852.83;191.65;;;4.30;99.90;;;;;;5069979;28;20398;-47
2021/04/07 03:12:23;;;;;;;852.88;187.60;;;4.20;99.90;;;;;;5062431;28;20405;-48
2021/04/07 03:14:50;;;;;;;853.60;187.20;;;4.10;99.90;;;;;;5062994;28;20917;-47
2021/04/07 03:17:16;;;;;;;856.50;195.27;;;4.10;99.90;;;;;;5081646;28;20394;-47
2021/04/07 03:19:42;;;;;;;852.97;190.40;;;4.10;99.90;;;;;;5063911;28;20906;-48
2021/04/07 03:22:08;;;;;;;853.33;191.43;;;4.00;99.90;;;;;;5066959;28;20386;-48
2021/04/07 03:24:34;;;;;;;857.80;192.35;;;3.90;99.90;;;;;;5068344;28;20393;-48
2021/04/07 03:27:00;;;;;;;858.60;198.95;;;3.90;99.90;;;;;;5061918;28;20382;-47
2021/04/07 03:29:27;;;;;;;860.85;202.80;;;3.80;99.90;;;;;;5065334;28;20416;-48
2021/04/07 03:31:53;;;;;;;862.08;202.88;;;3.80;99.90;;;;;;5067213;28;20396;-48
2021/04/07 03:34:19;;;;;;;864.15;207.98;;;3.80;99.90;;;;;;5057913;28;20388;-47
2021/04/07 03:36:46;;;;;;;865.08;212.27;;;3.80;99.90;;;;;;5066846;28;20402;-47
2021/04/07 03:39:12;;;;;;;863.22;207.57;;;3.80;99.90;;;;;;5059806;28;20398;-49
2021/04/07 03:41:38;;;;;;;861.83;205.63;;;3.80;99.90;;;;;;5069728;28;20382;-48
2021/04/07 03:44:04;;;;;;;854.00;197.40;;;3.90;99.90;;;;;;5081247;28;20893;-47
2021/04/07 03:46:30;;;;;;;859.10;206.03;;;4.00;99.90;;;;;;5059169;28;20662;-48
2021/04/07 03:48:56;;;;;;;864.45;215.30;;;3.80;99.90;;;;;;5064083;28;20412;-48
2021/04/07 03:51:23;;;;;;;860.28;209.88;;;3.80;99.90;;;;;;5067834;28;20751;-48
2021/04/07 03:53:49;;;;;;;861.17;206.90;;;3.70;99.90;;;;;;5064710;28;20412;-48
2021/04/07 03:56:15;;;;;;;856.85;201.27;;;3.60;99.90;;;;;;5068550;28;20386;-49
2021/04/07 03:58:41;;;;;;;855.35;199.20;;;3.60;99.90;;;;;;5066209;28;20407;-48
2021/04/07 04:01:07;;;;;;;856.72;199.23;;;3.60;99.90;;;;;;5056430;28;20392;-48
2021/04/07 04:03:33;;;;;;;859.92;206.75;;;3.50;99.90;;;;;;5063805;28;20395;-50
2021/04/07 04:06:00;;;;;;;865.17;211.13;;;3.50;99.90;;;;;;5069687;28;20471;-49
2021/04/07 04:08:26;;;;;;;859.47;206.05;;;3.60;99.90;;;;;;5064811;28;20424;-48
2021/04/07 04:10:52;;;;;;;860.90;216.18;;;3.50;99.90;;;;;;5050664;28;20387;-47
2021/04/07 04:13:18;;;;;;;871.33;240.75;;;3.50;99.90;;;;;;5051933;28;20407;-52
2021/04/07 04:15:45;;;;;;;876.80;263.85;;;3.40;99.90;;;;;;5061871;28;20875;-47
2021/04/07 04:18:11;;;;;;;883.92;276.85;;;3.30;99.90;;;;;;5073484;28;20394;-48
2021/04/07 04:20:38;;;;;;;878.58;272.92;;;3.20;99.90;;;;;;5071378;28;20407;-51
2021/04/07 04:23:04;;;;;;;881.15;276.67;;;3.20;99.90;;;;;;5061148;28;20394;-50
2021/04/07 04:25:30;;;;;;;879.83;273.13;;;3.20;99.90;;;;;;5057041;28;20404;-48
2021/04/07 04:27:57;;;;;;;882.30;272.90;;;3.20;99.90;;;;;;5064288;28;20418;-47
2021/04/07 04:30:24;;;;;;;890.13;280.85;;;3.20;99.90;;;;;;5062585;28;20409;-47
2021/04/07 04:32:50;;;;;;;884.07;272.90;;;3.10;99.90;;;;;;5068594;28;20380;-47
2021/04/07 04:35:17;;;;;;;883.38;272.00;;;3.10;99.90;;;;;;5067228;28;20411;-49
2021/04/07 04:37:45;;;;;;;879.90;265.10;;;3.00;99.90;;;;;;5073469;28;20394;-47
2021/04/07 04:40:11;;;;;;;884.13;269.15;;;3.00;99.90;;;;;;5073680;28;20901;-48
2021/04/07 04:42:37;;;;;;;887.65;266.17;;;2.90;99.90;;;;;;5073997;28;20378;-49
2021/04/07 04:45:07;;;;;;;885.42;265.02;;;3.00;99.90;;;;;;5073612;28;20390;-48
2021/04/07 04:47:34;;;;;;;881.47;264.83;;;3.00;99.90;;;;;;5073680;28;20378;-51
2021/04/07 04:50:00;;;;;;;880.55;254.07;;;2.90;99.90;;;;;;5073746;28;20410;-47
2021/04/07 04:52:26;;;;;;;883.75;265.30;;;2.90;99.90;;;;;;5073322;28;20377;-48
2021/04/07 04:54:52;;;;;;;875.50;256.40;;;2.90;99.90;;;;;;5072965;28;20387;-47
2021/04/07 04:57:18;;;;;;;883.38;261.58;;;2.90;99.90;;;;;;5073182;28;20381;-49
2021/04/07 04:59:45;;;;;;;881.13;262.17;;;3.00;99.90;;;;;;5073922;28;20394;-49
2021/04/07 05:02:11;;;;;;;881.75;268.90;;;3.00;99.90;;;;;;5065525;28;20884;-48
2021/04/07 05:04:37;;;;;;;890.63;275.97;;;3.00;99.90;;;;;;5053490;28;20407;-49
2021/04/07 05:07:03;;;;;;;888.30;272.73;;;3.00;99.90;;;;;;5064688;28;20382;-49
2021/04/07 05:09:29;;;;;;;878.88;260.45;;;3.10;99.90;;;;;;5071974;28;20766;-51
2021/04/07 05:11:56;;;;;;;874.67;254.32;;;3.10;99.90;;;;;;5054480;28;20387;-47
2021/04/07 05:14:22;;;;;;;878.50;259.40;;;3.10;99.90;;;;;;5052944;28;20880;-47
2021/04/07 05:16:48;;;;;;;878.03;256.13;;;3.30;99.90;;;;;;5055178;28;20392;-47
2021/04/07 05:19:14;;;;;;;880.90;264.52;;;3.30;99.90;;;;;;5062275;28;20403;-48
2021/04/07 05:21:40;;;;;;;882.80;262.20;;;3.40;99.90;;;;;;5061613;28;20399;-48
2021/04/07 05:24:07;;;;;;;879.78;246.63;;;3.50;99.90;;;;;;5071589;28;20397;-47
2021/04/07 05:26:36;;;;;;;869.10;223.33;;;3.50;99.90;;;;;;5072038;28;20764;-47
2021/04/07 05:29:03;;;;;;;866.67;215.15;;;3.60;99.90;;;;;;5069786;28;20468;-50
2021/04/07 05:31:29;;;;;;;863.20;212.82;;;3.70;99.90;;;;;;5071785;28;20389;-48
2021/04/07 05:33:56;;;;;;;864.60;207.70;;;3.80;99.90;;;;;;5061374;28;20390;-48
2021/04/07 05:36:22;;;;;;;861.80;203.55;;;3.90;99.60;;;;;;5066718;28;20391;-49
2021/04/07 05:38:50;;;;;;;859.78;199.27;;;4.00;99.00;;;;;;5068767;28;20394;-49
2021/04/07 05:41:17;;;;;;;857.43;196.07;;;4.00;98.90;;;;;;5054241;28;20828;-48
2021/04/07 05:43:43;;;;;;;856.73;196.50;;;4.10;98.90;;;;;;5072072;28;20460;-48
2021/04/07 05:46:09;;;;;;;859.45;198.77;;;4.10;98.70;;;;;;5071870;28;20382;-49
2021/04/07 05:48:35;;;;;;;860.60;201.98;;;4.10;99.10;;;;;;5056995;28;20408;-47
2021/04/07 05:51:02;;;;;;;863.65;208.60;;;4.20;98.60;;;;;;5080017;28;20730;-50
2021/04/07 05:53:28;;;;;;;862.03;201.40;;;4.30;98.00;;;;;;5071591;28;20727;-49
2021/04/07 05:55:55;;;;;;;860.00;203.73;;;4.40;97.70;;;;;;5062957;28;20401;-47
2021/04/07 05:58:21;;;;;;;860.78;205.07;;;4.40;97.40;;;;;;5063060;28;21016;-48
2021/04/07 06:00:48;;;;;;;863.55;209.48;;;4.50;97.70;;;;;;5052352;28;20399;-49
2021/04/07 06:03:14;;;;;;;861.13;203.32;;;4.50;96.30;;;;;;5066240;28;20386;-48
2021/04/07 06:05:42;;;;;;;861.58;202.32;;;4.50;96.50;;;;;;5070859;28;20393;-47
2021/04/07 06:08:08;;;;;;;859.55;204.25;;;4.60;96.00;;;;;;5060955;28;20390;-47
2021/04/07 06:10:39;;;;;;;860.38;202.70;;;4.60;96.20;;;;;;5063059;28;20390;-48
2021/04/07 06:13:05;;;;;;;860.63;201.00;;;4.70;95.60;;;;;;5071116;28;20412;-48
2021/04/07 06:15:32;;;;;;;862.47;203.60;;;4.70;95.70;;;;;;5066447;28;20394;-50
2021/04/07 06:18:02;;;;;;;858.58;198.57;;;4.70;95.00;;;;;;5060254;28;20392;-48
2021/04/07 06:20:30;;;;;;;856.67;196.38;;;4.80;94.80;;;;;;5056902;28;20383;-51
2021/04/07 06:22:57;;;;;;;858.08;194.68;;;4.90;94.40;;;;;;5064812;28;20382;-48
2021/04/07 06:25:23;;;;;;;858.93;199.93;;;5.00;94.10;;;;;;5074250;28;20395;-47
2021/04/07 06:27:51;;;;;;;854.67;185.88;;;5.00;93.60;;;;;;5070231;28;20390;-47
2021/04/07 06:30:18;;;;;;;855.33;185.30;;;5.10;93.10;;;;;;5071206;28;20402;-47
2021/04/07 06:32:44;;;;;;;856.30;197.00;;;5.20;93.60;;;;;;5071647;28;20366;-47
2021/04/07 06:35:11;;;;;;;855.53;197.55;;;5.30;93.90;;;;;;5070770;28;20382;-48
2021/04/07 06:37:37;;;;;;;857.33;195.68;;;5.50;92.90;;;;;;5070604;28;20378;-48
2021/04/07 06:40:05;;;;;;;858.93;208.97;;;5.60;92.70;;;;;;5071115;28;20727;-49
2021/04/07 06:42:32;;;;;;;857.40;208.90;;;5.70;91.90;;;;;;5065128;28;20386;-49
2021/04/07 06:45:01;;;;;;;862.40;216.15;;;5.80;91.60;;;;;;5062768;28;20387;-48
2021/04/07 06:47:27;;;;;;;867.65;226.25;;;5.90;90.90;;;;;;5069857;28;20751;-47
2021/04/07 06:49:54;;;;;;;862.83;220.18;;;6.20;91.50;;;;;;5071328;28;20802;-49
2021/04/07 06:52:21;;;;;;;865.38;225.35;;;6.10;89.40;;;;;;5071112;28;20382;-48
2021/04/07 06:54:53;;;;;;;865.00;234.32;;;6.20;90.40;;;;;;5070882;28;20898;-48
2021/04/07 06:57:19;;;;;;;869.75;238.27;;;6.30;89.00;;;;;;5071259;28;20378;-48
2021/04/07 06:59:45;;;;;;;871.15;246.98;;;6.40;90.20;;;;;;5066211;28;20408;-48
2021/04/07 07:02:12;;;;;;;881.40;250.77;;;6.60;90.10;;;;;;5063985;28;20479;-51
2021/04/07 07:04:39;;;;;;;882.88;270.38;;;6.60;88.30;;;;;;5068842;28;20402;-47
2021/04/07 07:07:06;;;;;;;875.85;269.13;;;6.80;88.60;;;;;;5060903;28;20393;-50
2021/04/07 07:09:32;;;;;;;876.10;257.98;;;6.80;85.90;;;;;;5049740;28;20416;-49
2021/04/07 07:11:58;;;;;;;878.15;272.65;;;6.80;86.60;;;;;;5061592;28;20385;-48
2021/04/07 07:14:24;;;;;;;882.72;278.40;;;7.00;86.50;;;;;;5068697;28;20390;-48
2021/04/07 07:16:51;;;;;;;882.40;277.75;;;7.00;85.00;;;;;;5069393;28;20382;-49
2021/04/07 07:19:21;;;;;;;884.83;289.65;;;7.30;85.50;;;;;;5061486;28;20399;-48
2021/04/07 07:22:01;;;;;;;883.85;300.90;;;7.50;86.40;;;;;;5068432;28;20382;-49
2021/04/07 07:24:31;;;;;;;884.67;293.88;;;7.50;82.90;;;;;;5066014;28;20386;-49
2021/04/07 07:27:02;;;;;;;887.38;303.67;;;7.50;82.30;;;;;;5069013;28;20381;-47
2021/04/07 07:29:30;;;;;;;886.28;298.30;;;7.40;84.10;;;;;;5060595;28;20418;-48
2021/04/07 07:32:06;;;;;;;884.15;297.02;;;7.40;83.40;;;;;;5072343;28;20386;-48
2021/04/07 07:34:33;;;;;;;888.10;305.55;;;7.50;81.10;;;;;;5057203;28;20392;-48
2021/04/07 07:37:01;;;;;;;886.90;299.23;;;7.50;81.10;;;;;;5052738;28;20391;-48
2021/04/07 07:39:32;;;;;;;882.15;296.50;;;7.40;81.60;;;;;;5060991;28;20380;-50
2021/04/07 07:42:02;;;;;;;885.45;293.88;;;7.40;79.50;;;;;;5048710;28;20753;-48
2021/04/07 07:44:31;;;;;;;882.08;288.52;;;7.40;78.30;;;;;;5063719;28;20387;-49
2021/04/07 07:47:04;;;;;;;882.25;293.92;;;7.60;80.40;;;;;;5057562;28;20726;-48
2021/04/07 07:49:30;;;;;;;887.95;304.13;;;7.60;77.50;;;;;;5079160;28;20488;-48
2021/04/07 07:51:56;;;;;;;888.20;309.45;;;7.60;78.00;;;;;;5073196;28;20396;-50
2021/04/07 07:54:23;;;;;;;888.20;311.33;;;7.70;76.00;;;;;;5080822;28;20403;-48
2021/04/07 07:56:50;;;;;;;888.53;314.70;;;7.90;76.30;;;;;;5075951;28;20383;-47
2021/04/07 07:59:33;;;;;;;895.40;319.83;;;8.00;75.70;;;;;;5082436;28;20407;-47
2021/04/07 08:01:59;;;;;;;897.38;336.35;;;8.10;74.40;;;;;;5072137;28;20401;-47
2021/04/07 08:04:26;;;;;;;894.42;344.65;;;8.30;75.80;;;;;;5072486;28;20382;-47
2021/04/07 08:06:52;;;;;;;907.88;372.77;;;8.50;74.40;;;;;;5075976;28;20392;-49
2021/04/07 08:09:18;;;;;;;912.67;394.38;;;8.40;73.60;;;;;;5061159;28;20425;-46
2021/04/07 08:11:46;;;;;;;919.40;431.83;;;8.70;73.20;;;;;;5058121;28;20383;-49
2021/04/07 08:14:16;;;;;;;925.08;465.17;;;9.20;75.00;;;;;;5066430;28;20390;-46
2021/04/07 08:16:43;;;;;;;934.72;490.10;;;9.40;70.50;;;;;;5064259;28;20388;-45
2021/04/07 08:19:13;;;;;;;931.15;488.63;;;9.50;68.20;;;;;;5054124;28;20392;-50
2021/04/07 08:21:39;;;;;;;937.55;511.13;;;9.40;69.30;;;;;;5054562;28;20790;-47
2021/04/07 08:24:07;;;;;;;942.30;517.33;;;9.10;69.60;;;;;;5059784;28;20392;-47
2021/04/07 08:26:36;;;;;;;948.27;539.97;;;8.80;68.40;;;;;;5074242;28;20427;-47
2021/04/07 08:29:04;;;;;;;948.67;537.08;;;8.80;70.30;;;;;;5060464;28;20416;-46
2021/04/07 08:31:30;;;;;;;942.25;529.83;;;9.10;70.50;;;;;;5059156;28;20398;-46
2021/04/07 08:33:57;;;;;;;948.22;550.17;;;9.20;69.90;;;;;;5073705;28;20382;-47
2021/04/07 08:36:25;;;;;;;948.15;550.05;;;9.30;69.80;;;;;;5039453;28;20379;-46
2021/04/07 08:39:08;;;;;;;949.25;555.08;;;9.50;66.20;;;;;;5057876;28;20403;-46
2021/04/07 08:41:34;;;;;;;952.03;566.67;;;9.60;67.80;;;;;;5066521;28;20747;-50
2021/04/07 08:44:01;;;;;;;965.33;616.65;;;10.00;68.30;;;;;;5059562;28;20394;-46
2021/04/07 08:46:28;;;;;;;977.92;662.95;;;10.40;66.10;;;;;;5055930;28;20392;-46
2021/04/07 08:48:55;;;;;;;1009.67;758.63;;;11.00;65.00;;;;;;5059104;28;20389;-46
2021/04/07 08:51:23;;;;;;;1019.10;796.45;;;11.30;64.40;;;;;;5073269;28;20391;-47
2021/04/07 08:53:54;;;;;;;891.00;448.83;;;11.20;61.50;;;;;;5061691;28;20178;-47
2021/04/07 08:56:31;;;;;;;865.58;388.42;;;11.60;61.70;;;;;;5066312;28;20611;-46
2021/04/07 08:59:01;;;;;;;834.20;316.23;;;11.70;59.90;;;;;;5063699;28;20618;-46
2021/04/07 09:01:30;;;;;;;827.13;291.48;;;12.00;60.80;;;;;;5073127;28;20200;-47
2021/04/07 09:04:14;;;;;;;839.22;305.75;;;10.90;61.90;;;;;;5054828;28;20175;-47
2021/04/07 09:06:41;;;;;;;830.33;291.20;;;11.20;62.30;;;;;;5065361;28;20178;-47
2021/04/07 09:09:08;;;;;;;831.75;305.50;;;11.10;60.20;;;;;;5052025;28;20218;-47
2021/04/07 09:11:36;;;;;;;842.90;334.13;;;11.20;60.80;;;;;;5063965;28;20178;-50
2021/04/07 09:14:05;;;;;;;882.95;465.33;;;11.50;60.60;;;;;;5073881;28;20200;-47
2021/04/07 09:16:39;;;;;;;873.70;439.67;;;12.10;60.40;;;;;;5068849;28;20186;-50
2021/04/07 09:19:24;;;;;;;980.53;725.42;;;11.30;59.80;;;;;;5061476;28;20388;-49
2021/04/07 09:22:00;;;;;;;920.58;583.92;;;12.30;60.70;;;;;;5053978;28;20136;-48
2021/04/07 09:24:28;;;;;;;919.65;598.13;;;13.00;60.10;;;;;;5070195;28;20378;-50
2021/04/07 09:26:56;;;;;;;932.20;633.97;;;13.80;58.60;;;;;;5088982;28;20180;-46
2021/04/07 09:29:22;;;;;;;925.33;638.67;;;13.60;55.80;;;;;;5062530;28;20482;-47
2021/04/07 09:31:52;;;;;;;924.67;640.03;;;13.50;57.90;;;;;;5070067;28;20216;-50
2021/04/07 09:34:18;;;;;;;918.10;608.20;;;12.80;55.00;;;;;;5070563;28;20181;-47
2021/04/07 09:36:46;;;;;;;901.42;535.58;;;11.60;55.10;;;;;;5058435;28;20191;-48
2021/04/07 09:39:17;;;;;;;901.65;534.55;;;11.80;54.90;;;;;;5077267;28;20174;-47
2021/04/07 09:41:44;;;;;;;892.17;514.22;;;12.20;56.30;;;;;;5058491;28;20175;-46
2021/04/07 09:44:14;;;;;;;904.55;555.00;;;12.20;56.80;;;;;;5076658;28;20202;-49
2021/04/07 09:46:41;;;;;;;908.72;561.38;;;12.50;54.70;;;;;;5058315;28;20170;-51
2021/04/07 09:49:08;;;;;;;916.13;598.67;;;13.70;56.80;;;;;;5067205;28;20170;-50
2021/04/07 09:51:35;;;;;;;933.83;671.97;;;14.00;53.90;;;;;;5071277;28;20182;-48
2021/04/07 09:54:28;;;;;;;960.20;754.45;;;14.30;52.20;;;;;;5071846;28;20181;-50
2021/04/07 09:57:06;;;;;;;;;;;15.20;53.50;;;;;;5071159;28;25064;-53
2021/04/07 09:59:48;;;;;;;999.85;861.38;;;16.40;49.40;;;;;;5072797;28;20527;-49
2021/04/07 10:02:24;;;;;;;1015.90;900.00;;;15.70;45.70;;;;;;5070597;28;20205;-51
2021/04/07 10:04:51;;;;;;;;;;;16.20;50.70;;;;;;5064388;28;20371;-50
2021/04/07 10:07:17;;;;;;;;;;;17.00;47.20;;;;;;5072959;28;19911;-46
2021/04/07 10:09:54;;;;;;;1032.85;917.80;;;16.20;46.70;;;;;;5064216;28;20805;-46
2021/04/07 10:12:22;;;;;;;1008.97;881.92;;;15.30;46.20;;;;;;5059204;28;20669;-48
2021/04/07 10:14:54;;;;;;;992.90;848.70;;;14.10;45.70;;;;;;5058648;28;20179;-51
2021/04/07 10:17:24;;;;;;;990.97;848.08;;;14.50;49.10;;;;;;5062343;28;20220;-49
2021/04/07 10:19:51;;;;;;;1000.92;865.05;;;16.00;49.20;;;;;;5064540;28;20183;-53
2021/04/07 10:22:27;;;;;;;1022.42;908.75;;;17.00;46.00;;;;;;5062378;28;20191;-50
2021/04/07 10:24:54;;;;;;;;;;;17.00;43.00;;;;;;5052792;28;20072;-52
2021/04/07 10:27:20;;;;;;;;;;;17.00;42.20;;;;;;5059993;28;19908;-47
2021/04/07 10:29:47;;;;;;;1239.53;999.90;;;18.60;43.40;;;;;;5058400;28;20426;-49
2021/04/07 10:32:18;;;;;;;1079.90;963.78;;;16.80;41.40;;;;;;5058316;28;20175;-47
2021/04/07 10:34:45;;;;;;;1060.05;945.13;;;17.40;41.10;;;;;;5059579;28;20506;-51
2021/04/07 10:37:12;;;;;;;1051.80;937.80;;;16.80;41.20;;;;;;5073703;28;20174;-52
2021/04/07 10:39:41;;;;;;;1050.60;936.30;;;17.30;39.20;;;;;;5056421;28;20131;-50
2021/04/07 10:42:25;;;;;;;1066.70;951.45;;;18.20;42.20;;;;;;5052414;28;20706;-50
2021/04/07 10:45:05;;;;;;;1078.18;962.30;;;17.80;39.00;;;;;;5079893;28;20189;-49
2021/04/07 10:47:35;;;;;;;1071.45;956.40;;;17.40;40.30;;;;;;5061688;28;20174;-49
2021/04/07 10:50:01;;;;;;;1069.95;955.20;;;18.00;40.20;;;;;;5051636;28;20578;-51
2021/04/07 10:52:41;;;;;;;1076.28;960.03;;;17.50;40.50;;;;;;5084678;28;20170;-51
2021/04/07 10:55:22;;;;;;;1060.47;946.20;;;18.60;37.60;;;;;;5071738;28;20176;-49
2021/04/07 10:57:48;;;;;;;1047.47;933.38;;;17.20;39.90;;;;;;5069475;28;20189;-48
2021/04/07 11:00:24;;;;;;;1007.08;886.03;;;15.60;38.00;;;;;;5054249;28;20179;-50
2021/04/07 11:02:52;;;;;;;981.63;826.53;;;13.90;40.40;;;;;;5055685;28;20110;-48
2021/04/07 11:05:22;;;;;;;964.28;773.35;;;14.60;40.40;;;;;;5071470;28;20177;-50
2021/04/07 11:08:02;;;;;;;943.92;709.50;;;13.40;40.90;;;;;;5070792;28;20166;-48
2021/04/07 11:10:36;;;;;;;928.33;665.00;;;13.90;41.60;;;;;;5051819;28;20205;-50
2021/04/07 11:13:02;;;;;;;934.63;679.42;;;15.60;41.10;;;;;;5051370;28;20171;-49
2021/04/07 11:15:28;;;;;;;933.25;688.53;;;15.20;39.00;;;;;;5072757;28;20178;-49
2021/04/07 11:17:54;;;;;;;939.60;712.90;;;14.60;38.50;;;;;;5067644;28;20189;-50
2021/04/07 11:20:21;;;;;;;951.65;753.10;;;16.00;39.60;;;;;;5061676;28;20079;-49
2021/04/07 11:22:48;;;;;;;951.53;765.50;;;16.80;38.20;;;;;;5066440;28;20189;-49
2021/04/07 11:25:14;;;;;;;954.00;768.80;;;16.10;36.70;;;;;;5052228;28;20198;-49
2021/04/07 11:27:41;;;;;;;944.40;729.45;;;15.70;36.90;;;;;;5056038;28;20538;-48
2021/04/07 11:30:07;;;;;;;926.33;647.28;;;14.10;35.80;;;;;;5055445;28;20694;-50
2021/04/07 11:32:36;;;;;;;906.80;575.05;;;12.80;39.00;;;;;;5056782;28;20646;-51
2021/04/07 11:35:15;;;;;;;890.35;511.33;;;12.40;39.50;;;;;;5056521;28;20224;-50
2021/04/07 11:37:51;;;;;;;978.08;746.50;;;12.80;39.60;;;;;;5059184;28;25115;-50
2021/04/07 11:43:09;;;;;;;948.33;727.05;;;17.50;40.10;;;;;;5061559;28;20559;-53
2021/04/07 11:45:36;;;;;;;954.15;751.60;;;16.80;35.10;;;;;;5082779;28;20170;-49
2021/04/07 11:48:02;;;;;;;947.03;725.63;;;15.10;36.30;;;;;;5074521;28;20613;-48
2021/04/07 11:50:29;;;;;;;932.03;672.30;;;13.80;40.90;;;;;;5070346;28;20525;-50
2021/04/07 11:52:55;;;;;;;927.70;636.65;;;13.20;45.00;;;;;;5074018;28;20177;-50
2021/04/07 11:55:21;;;;;;;1007.97;839.50;;;12.90;45.30;;;;;;5063161;28;20397;-49
2021/04/07 11:57:47;;;;;;;919.70;608.03;;;13.30;47.20;;;;;;5064856;28;20178;-48
2021/04/07 12:00:14;;;;;;;903.60;558.10;;;13.70;48.00;;;;;;5085880;28;20182;-47
2021/04/07 12:02:43;;;;;;;978.78;746.53;;;12.90;47.40;;;;;;5053712;28;20400;-50
2021/04/07 12:05:11;;;;;;;982.27;746.93;;;12.00;49.20;;;;;;5053239;28;20852;-49
2021/04/07 12:07:37;;;;;;;975.65;719.45;;;12.40;49.00;;;;;;5068872;28;20472;-49
2021/04/07 12:10:24;;;;;;;890.90;489.85;;;12.60;51.90;;;;;;5057945;28;20217;-48
2021/04/07 12:12:50;;;;;;;827.45;253.70;;;12.20;50.80;;;;;;5075828;28;20170;-49
2021/04/07 12:15:16;;;;;;;801.20;194.30;;;11.50;53.40;;;;;;5057079;28;20178;-47
2021/04/07 12:17:43;;;;;;;774.07;129.67;;;11.00;56.30;;;;;;5056432;28;20194;-49
2021/04/07 12:20:10;;;;;;;938.97;594.83;;;11.30;57.80;;;;;;5058091;28;20426;-47
2021/04/07 12:22:38;;;;;;;766.90;116.07;;;10.90;58.00;;;;;;5053823;28;20185;-51
2021/04/07 12:25:04;;;;;;;931.40;547.53;;;10.60;57.70;;;;;;5049407;28;20403;-51